Main page
METAR-TAF:

METAR-TAF

Airports :

Menorca Airport

Minorca, Spain

latitude: 39-52N, longitude: 004-14E, elevation: 87 m

Current weather observation

The report was made 16 minutes ago, at 01:30 UTC
Wind 2 kt from the West/Northwest
Temperature 19°C
Humidity 88%
Pressure 1017 hPa
Visibility 10 km or more

METAR: LEMH 220130Z AUTO 29002KT 9999 NCD 19/17 Q1017

Time: 03:46 (01:46 UTC)

Forecast

The report was made 5 hours and 46 minutes ago, at 20:00 UTC
Forecast valid from 21 at 21 UTC to 22 at 21 UTC
Wind 4 kt from variable directions
Visibility 10 km or more
Few clouds at a height of 3000 ft
Becoming
from 22 at 07 UTC to 22 at 09 UTC
Wind 10 kt from the North
Becoming
from 22 at 17 UTC to 22 at 19 UTC
Wind 3 kt from variable directions

TAF: LEMH 212000Z 2121/2221 VRB04KT 9999 FEW030 TX30/2212Z TN20/2205Z BECMG 2207/2209 01010KT BECMG 2217/2219 VRB03KT

Weather observations and forecasts of more than 4000 airports (METAR and TAF reports).

The available stations are represented by yellow and red dots on the map.

Hover mouse over dot to see the name of the station.

Then click to see weather observations and forecasts.

To change the map : click on the green buttons with a black cross to zoom in, on the green button with a dash to zoom out, or on the green arrows for adjacent maps.


METAR-TAF: